sensor_id;sensor_type;location;lat;lon;timestamp;P1;durP1;ratioP1;P2;durP2;ratioP2
20421;SDS011;10370;53.102;18.034;2024-03-29T00:02:24;6.13;;;2.50;;
20421;SDS011;10370;53.102;18.034;2024-03-29T00:07:46;3.55;;;2.58;;
20421;SDS011;10370;53.102;18.034;2024-03-29T00:13:07;3.75;;;2.42;;
20421;SDS011;10370;53.102;18.034;2024-03-29T00:18:29;4.80;;;2.83;;
20421;SDS011;10370;53.102;18.034;2024-03-29T00:23:50;4.22;;;2.85;;
20421;SDS011;10370;53.102;18.034;2024-03-29T00:29:12;4.55;;;3.00;;
20421;SDS011;10370;53.102;18.034;2024-03-29T00:34:35;6.13;;;3.00;;
20421;SDS011;10370;53.102;18.034;2024-03-29T00:39:56;4.93;;;2.88;;
20421;SDS011;10370;53.102;18.034;2024-03-29T00:45:21;3.72;;;2.45;;
20421;SDS011;10370;53.102;18.034;2024-03-29T00:50:42;3.60;;;2.45;;
20421;SDS011;10370;53.102;18.034;2024-03-29T00:56:06;5.43;;;2.88;;
20421;SDS011;10370;53.102;18.034;2024-03-29T01:01:28;5.75;;;2.67;;
20421;SDS011;10370;53.102;18.034;2024-03-29T01:06:49;4.95;;;3.25;;
20421;SDS011;10370;53.102;18.034;2024-03-29T01:12:11;5.03;;;3.00;;
20421;SDS011;10370;53.102;18.034;2024-03-29T01:17:32;8.05;;;3.17;;
20421;SDS011;10370;53.102;18.034;2024-03-29T01:22:54;4.95;;;3.40;;
20421;SDS011;10370;53.102;18.034;2024-03-29T01:28:16;5.53;;;3.28;;
20421;SDS011;10370;53.102;18.034;2024-03-29T01:33:38;6.10;;;2.97;;
20421;SDS011;10370;53.102;18.034;2024-03-29T01:39:01;5.70;;;3.30;;
20421;SDS011;10370;53.102;18.034;2024-03-29T01:44:23;5.18;;;3.38;;
20421;SDS011;10370;53.102;18.034;2024-03-29T01:49:45;5.07;;;3.35;;
20421;SDS011;10370;53.102;18.034;2024-03-29T01:55:06;4.90;;;3.20;;
20421;SDS011;10370;53.102;18.034;2024-03-29T02:00:28;4.28;;;3.15;;
20421;SDS011;10370;53.102;18.034;2024-03-29T02:05:51;3.88;;;2.80;;
20421;SDS011;10370;53.102;18.034;2024-03-29T02:11:14;6.47;;;3.00;;
20421;SDS011;10370;53.102;18.034;2024-03-29T02:16:35;4.45;;;3.08;;
20421;SDS011;10370;53.102;18.034;2024-03-29T02:21:59;4.35;;;2.72;;
20421;SDS011;10370;53.102;18.034;2024-03-29T02:27:22;5.07;;;3.40;;
20421;SDS011;10370;53.102;18.034;2024-03-29T02:32:43;4.65;;;3.15;;
20421;SDS011;10370;53.102;18.034;2024-03-29T02:38:05;4.28;;;3.10;;
20421;SDS011;10370;53.102;18.034;2024-03-29T02:43:26;3.70;;;2.60;;
20421;SDS011;10370;53.102;18.034;2024-03-29T02:48:48;5.15;;;3.13;;
20421;SDS011;10370;53.102;18.034;2024-03-29T02:54:10;5.20;;;3.20;;
20421;SDS011;10370;53.102;18.034;2024-03-29T02:59:32;5.13;;;3.13;;
20421;SDS011;10370;53.102;18.034;2024-03-29T03:04:53;6.50;;;3.53;;
20421;SDS011;10370;53.102;18.034;2024-03-29T03:10:15;6.85;;;3.45;;
20421;SDS011;10370;53.102;18.034;2024-03-29T03:15:55;6.15;;;3.58;;
20421;SDS011;10370;53.102;18.034;2024-03-29T03:21:16;5.72;;;3.40;;
20421;SDS011;10370;53.102;18.034;2024-03-29T03:26:38;7.05;;;3.78;;
20421;SDS011;10370;53.102;18.034;2024-03-29T03:32:00;5.60;;;4.00;;
20421;SDS011;10370;53.102;18.034;2024-03-29T03:37:21;7.07;;;3.65;;
20421;SDS011;10370;53.102;18.034;2024-03-29T03:42:43;5.15;;;3.60;;
20421;SDS011;10370;53.102;18.034;2024-03-29T03:48:05;7.00;;;4.30;;
20421;SDS011;10370;53.102;18.034;2024-03-29T03:53:28;5.90;;;3.78;;
20421;SDS011;10370;53.102;18.034;2024-03-29T03:58:49;6.75;;;4.90;;
20421;SDS011;10370;53.102;18.034;2024-03-29T04:04:11;6.15;;;3.95;;
20421;SDS011;10370;53.102;18.034;2024-03-29T04:09:32;5.85;;;3.80;;
20421;SDS011;10370;53.102;18.034;2024-03-29T04:14:54;7.13;;;3.67;;
20421;SDS011;10370;53.102;18.034;2024-03-29T04:20:16;12.05;;;4.30;;
20421;SDS011;10370;53.102;18.034;2024-03-29T04:25:37;9.27;;;4.05;;
20421;SDS011;10370;53.102;18.034;2024-03-29T04:31:00;11.45;;;4.03;;
20421;SDS011;10370;53.102;18.034;2024-03-29T04:36:22;7.40;;;4.28;;
20421;SDS011;10370;53.102;18.034;2024-03-29T04:41:43;11.85;;;3.97;;
20421;SDS011;10370;53.102;18.034;2024-03-29T04:47:04;7.23;;;3.80;;
20421;SDS011;10370;53.102;18.034;2024-03-29T04:52:27;5.10;;;3.25;;
20421;SDS011;10370;53.102;18.034;2024-03-29T04:57:50;4.68;;;3.13;;
20421;SDS011;10370;53.102;18.034;2024-03-29T05:03:12;5.15;;;2.88;;
20421;SDS011;10370;53.102;18.034;2024-03-29T05:08:33;5.60;;;2.80;;
20421;SDS011;10370;53.102;18.034;2024-03-29T05:19:21;3.05;;;1.80;;
20421;SDS011;10370;53.102;18.034;2024-03-29T05:40:48;3.47;;;1.55;;
20421;SDS011;10370;53.102;18.034;2024-03-29T05:46:09;2.50;;;1.83;;
20421;SDS011;10370;53.102;18.034;2024-03-29T05:51:31;2.40;;;1.90;;
20421;SDS011;10370;53.102;18.034;2024-03-29T05:56:55;5.20;;;2.20;;
20421;SDS011;10370;53.102;18.034;2024-03-29T06:02:16;3.45;;;2.13;;
20421;SDS011;10370;53.102;18.034;2024-03-29T06:07:38;3.15;;;2.10;;
20421;SDS011;10370;53.102;18.034;2024-03-29T06:13:01;5.68;;;3.25;;
20421;SDS011;10370;53.102;18.034;2024-03-29T06:18:28;4.05;;;2.72;;
20421;SDS011;10370;53.102;18.034;2024-03-29T06:23:50;5.28;;;2.83;;
20421;SDS011;10370;53.102;18.034;2024-03-29T06:29:11;4.63;;;2.55;;
20421;SDS011;10370;53.102;18.034;2024-03-29T06:34:33;6.15;;;3.17;;
20421;SDS011;10370;53.102;18.034;2024-03-29T06:39:55;4.43;;;2.80;;
20421;SDS011;10370;53.102;18.034;2024-03-29T06:45:17;5.63;;;2.50;;
20421;SDS011;10370;53.102;18.034;2024-03-29T06:50:39;4.32;;;2.67;;
20421;SDS011;10370;53.102;18.034;2024-03-29T06:56:01;3.80;;;2.60;;
20421;SDS011;10370;53.102;18.034;2024-03-29T07:01:23;3.60;;;2.15;;
20421;SDS011;10370;53.102;18.034;2024-03-29T07:06:47;6.47;;;2.65;;
20421;SDS011;10370;53.102;18.034;2024-03-29T07:12:12;4.07;;;2.67;;
20421;SDS011;10370;53.102;18.034;2024-03-29T07:17:33;4.63;;;2.22;;
20421;SDS011;10370;53.102;18.034;2024-03-29T07:22:55;6.45;;;2.50;;
20421;SDS011;10370;53.102;18.034;2024-03-29T07:28:16;2.97;;;2.22;;
20421;SDS011;10370;53.102;18.034;2024-03-29T07:33:43;5.10;;;2.55;;
20421;SDS011;10370;53.102;18.034;2024-03-29T07:39:05;3.90;;;2.60;;
20421;SDS011;10370;53.102;18.034;2024-03-29T07:44:27;5.53;;;2.50;;
20421;SDS011;10370;53.102;18.034;2024-03-29T07:49:48;4.25;;;2.63;;
20421;SDS011;10370;53.102;18.034;2024-03-29T07:55:10;4.72;;;2.10;;
20421;SDS011;10370;53.102;18.034;2024-03-29T08:00:38;3.90;;;2.05;;
20421;SDS011;10370;53.102;18.034;2024-03-29T08:06:04;5.43;;;2.58;;
20421;SDS011;10370;53.102;18.034;2024-03-29T08:11:26;4.05;;;2.13;;
20421;SDS011;10370;53.102;18.034;2024-03-29T08:16:48;3.63;;;2.20;;
20421;SDS011;10370;53.102;18.034;2024-03-29T08:22:10;4.25;;;2.53;;
20421;SDS011;10370;53.102;18.034;2024-03-29T08:27:31;5.55;;;2.58;;
20421;SDS011;10370;53.102;18.034;2024-03-29T08:33:05;3.97;;;2.45;;
20421;SDS011;10370;53.102;18.034;2024-03-29T08:38:37;3.85;;;2.75;;
20421;SDS011;10370;53.102;18.034;2024-03-29T08:44:03;5.85;;;2.80;;
20421;SDS011;10370;53.102;18.034;2024-03-29T08:49:25;5.90;;;2.78;;
20421;SDS011;10370;53.102;18.034;2024-03-29T08:54:50;4.32;;;3.08;;
20421;SDS011;10370;53.102;18.034;2024-03-29T09:00:12;4.03;;;2.70;;
20421;SDS011;10370;53.102;18.034;2024-03-29T09:05:34;4.43;;;2.80;;
20421;SDS011;10370;53.102;18.034;2024-03-29T09:10:56;5.53;;;3.00;;
20421;SDS011;10370;53.102;18.034;2024-03-29T09:16:19;4.47;;;2.80;;
20421;SDS011;10370;53.102;18.034;2024-03-29T09:21:40;5.65;;;2.80;;
20421;SDS011;10370;53.102;18.034;2024-03-29T09:27:02;4.25;;;2.80;;
20421;SDS011;10370;53.102;18.034;2024-03-29T09:32:27;5.75;;;3.05;;
20421;SDS011;10370;53.102;18.034;2024-03-29T09:37:49;4.55;;;3.03;;
20421;SDS011;10370;53.102;18.034;2024-03-29T09:43:11;14.13;;;3.47;;
20421;SDS011;10370;53.102;18.034;2024-03-29T09:48:37;4.80;;;2.55;;
20421;SDS011;10370;53.102;18.034;2024-03-29T09:53:59;6.15;;;2.10;;
20421;SDS011;10370;53.102;18.034;2024-03-29T09:59:21;4.00;;;2.33;;
20421;SDS011;10370;53.102;18.034;2024-03-29T10:04:45;5.90;;;2.72;;
20421;SDS011;10370;53.102;18.034;2024-03-29T10:10:07;5.53;;;2.30;;
20421;SDS011;10370;53.102;18.034;2024-03-29T10:15:31;4.60;;;2.25;;
20421;SDS011;10370;53.102;18.034;2024-03-29T10:21:02;6.10;;;2.00;;
20421;SDS011;10370;53.102;18.034;2024-03-29T10:26:24;6.47;;;2.20;;
20421;SDS011;10370;53.102;18.034;2024-03-29T10:31:46;10.95;;;1.98;;
20421;SDS011;10370;53.102;18.034;2024-03-29T10:37:10;8.30;;;1.95;;
20421;SDS011;10370;53.102;18.034;2024-03-29T10:42:32;21.05;;;2.75;;
20421;SDS011;10370;53.102;18.034;2024-03-29T10:47:55;8.27;;;1.90;;
20421;SDS011;10370;53.102;18.034;2024-03-29T10:53:18;4.72;;;1.63;;
20421;SDS011;10370;53.102;18.034;2024-03-29T10:58:42;4.43;;;1.55;;
20421;SDS011;10370;53.102;18.034;2024-03-29T11:04:13;9.27;;;1.50;;
20421;SDS011;10370;53.102;18.034;2024-03-29T11:09:41;4.18;;;1.70;;
20421;SDS011;10370;53.102;18.034;2024-03-29T11:15:06;5.45;;;1.90;;
20421;SDS011;10370;53.102;18.034;2024-03-29T11:20:35;6.45;;;1.70;;
20421;SDS011;10370;53.102;18.034;2024-03-29T11:26:00;11.52;;;2.00;;
20421;SDS011;10370;53.102;18.034;2024-03-29T11:31:22;3.55;;;1.52;;
20421;SDS011;10370;53.102;18.034;2024-03-29T11:36:45;4.07;;;1.40;;
20421;SDS011;10370;53.102;18.034;2024-03-29T11:42:10;2.40;;;1.55;;
20421;SDS011;10370;53.102;18.034;2024-03-29T11:47:32;5.07;;;1.73;;
20421;SDS011;10370;53.102;18.034;2024-03-29T11:52:55;8.70;;;1.52;;
20421;SDS011;10370;53.102;18.034;2024-03-29T11:58:17;7.90;;;1.60;;
20421;SDS011;10370;53.102;18.034;2024-03-29T12:03:38;6.10;;;1.95;;
20421;SDS011;10370;53.102;18.034;2024-03-29T12:09:01;8.48;;;2.10;;
20421;SDS011;10370;53.102;18.034;2024-03-29T12:14:28;3.15;;;1.23;;
20421;SDS011;10370;53.102;18.034;2024-03-29T12:19:59;2.78;;;1.38;;
20421;SDS011;10370;53.102;18.034;2024-03-29T12:25:30;2.65;;;1.50;;
20421;SDS011;10370;53.102;18.034;2024-03-29T12:30:53;4.00;;;1.50;;
20421;SDS011;10370;53.102;18.034;2024-03-29T12:36:16;8.00;;;1.50;;
20421;SDS011;10370;53.102;18.034;2024-03-29T12:41:40;5.45;;;1.27;;
20421;SDS011;10370;53.102;18.034;2024-03-29T12:47:02;7.15;;;1.50;;
20421;SDS011;10370;53.102;18.034;2024-03-29T12:52:25;3.83;;;1.17;;
20421;SDS011;10370;53.102;18.034;2024-03-29T12:57:47;3.88;;;1.10;;
20421;SDS011;10370;53.102;18.034;2024-03-29T13:03:09;2.50;;;1.60;;
20421;SDS011;10370;53.102;18.034;2024-03-29T13:08:31;18.27;;;7.00;;
20421;SDS011;10370;53.102;18.034;2024-03-29T13:13:53;5.57;;;1.27;;
20421;SDS011;10370;53.102;18.034;2024-03-29T13:19:15;6.10;;;1.20;;
20421;SDS011;10370;53.102;18.034;2024-03-29T13:24:37;4.60;;;1.30;;
20421;SDS011;10370;53.102;18.034;2024-03-29T13:29:58;10.30;;;1.38;;
20421;SDS011;10370;53.102;18.034;2024-03-29T13:35:20;4.50;;;1.08;;
20421;SDS011;10370;53.102;18.034;2024-03-29T13:40:43;4.60;;;1.05;;
20421;SDS011;10370;53.102;18.034;2024-03-29T13:46:05;11.38;;;1.33;;
20421;SDS011;10370;53.102;18.034;2024-03-29T13:51:27;4.75;;;1.25;;
20421;SDS011;10370;53.102;18.034;2024-03-29T13:56:49;3.33;;;1.17;;
20421;SDS011;10370;53.102;18.034;2024-03-29T14:02:11;5.72;;;1.42;;
20421;SDS011;10370;53.102;18.034;2024-03-29T14:07:37;6.78;;;1.25;;
20421;SDS011;10370;53.102;18.034;2024-03-29T14:12:58;5.53;;;1.58;;
20421;SDS011;10370;53.102;18.034;2024-03-29T14:18:22;2.25;;;0.90;;
20421;SDS011;10370;53.102;18.034;2024-03-29T14:23:44;3.45;;;0.90;;
20421;SDS011;10370;53.102;18.034;2024-03-29T14:29:05;4.47;;;1.10;;
20421;SDS011;10370;53.102;18.034;2024-03-29T14:34:27;2.53;;;0.95;;
20421;SDS011;10370;53.102;18.034;2024-03-29T14:39:53;5.53;;;1.30;;
20421;SDS011;10370;53.102;18.034;2024-03-29T14:45:15;2.88;;;0.90;;
20421;SDS011;10370;53.102;18.034;2024-03-29T14:50:37;2.80;;;1.10;;
20421;SDS011;10370;53.102;18.034;2024-03-29T14:55:58;2.22;;;1.10;;
20421;SDS011;10370;53.102;18.034;2024-03-29T15:01:23;8.25;;;1.20;;
20421;SDS011;10370;53.102;18.034;2024-03-29T15:06:44;3.25;;;1.10;;
20421;SDS011;10370;53.102;18.034;2024-03-29T15:12:06;5.75;;;1.42;;
20421;SDS011;10370;53.102;18.034;2024-03-29T15:17:29;3.65;;;1.20;;
20421;SDS011;10370;53.102;18.034;2024-03-29T15:23:01;4.15;;;1.73;;
20421;SDS011;10370;53.102;18.034;2024-03-29T15:28:24;9.48;;;1.60;;
20421;SDS011;10370;53.102;18.034;2024-03-29T15:34:05;5.07;;;1.50;;
20421;SDS011;10370;53.102;18.034;2024-03-29T15:39:28;4.22;;;1.30;;
20421;SDS011;10370;53.102;18.034;2024-03-29T15:44:49;3.03;;;1.30;;
20421;SDS011;10370;53.102;18.034;2024-03-29T15:50:14;7.32;;;1.30;;
20421;SDS011;10370;53.102;18.034;2024-03-29T15:55:36;3.95;;;1.50;;
20421;SDS011;10370;53.102;18.034;2024-03-29T16:00:58;3.25;;;1.52;;
20421;SDS011;10370;53.102;18.034;2024-03-29T16:06:20;6.82;;;1.60;;
20421;SDS011;10370;53.102;18.034;2024-03-29T16:11:41;5.28;;;1.50;;
20421;SDS011;10370;53.102;18.034;2024-03-29T16:17:03;7.05;;;1.55;;
20421;SDS011;10370;53.102;18.034;2024-03-29T16:22:24;7.18;;;1.60;;
20421;SDS011;10370;53.102;18.034;2024-03-29T16:27:46;6.20;;;1.77;;
20421;SDS011;10370;53.102;18.034;2024-03-29T16:33:08;21.55;;;2.83;;
20421;SDS011;10370;53.102;18.034;2024-03-29T16:38:30;28.80;;;4.07;;
20421;SDS011;10370;53.102;18.034;2024-03-29T16:43:51;5.82;;;2.80;;
20421;SDS011;10370;53.102;18.034;2024-03-29T16:49:13;17.50;;;2.83;;
20421;SDS011;10370;53.102;18.034;2024-03-29T16:54:34;17.52;;;2.85;;
20421;SDS011;10370;53.102;18.034;2024-03-29T16:59:56;12.27;;;2.63;;
20421;SDS011;10370;53.102;18.034;2024-03-29T17:05:17;7.72;;;2.50;;
20421;SDS011;10370;53.102;18.034;2024-03-29T17:10:39;14.57;;;2.80;;
20421;SDS011;10370;53.102;18.034;2024-03-29T17:16:01;13.32;;;5.20;;
20421;SDS011;10370;53.102;18.034;2024-03-29T17:21:23;12.45;;;2.97;;
20421;SDS011;10370;53.102;18.034;2024-03-29T17:26:44;6.45;;;2.72;;
20421;SDS011;10370;53.102;18.034;2024-03-29T17:32:06;13.40;;;3.00;;
20421;SDS011;10370;53.102;18.034;2024-03-29T17:37:28;8.10;;;3.50;;
20421;SDS011;10370;53.102;18.034;2024-03-29T17:42:49;12.20;;;4.53;;
20421;SDS011;10370;53.102;18.034;2024-03-29T17:48:11;14.75;;;4.65;;
20421;SDS011;10370;53.102;18.034;2024-03-29T18:04:15;20.00;;;5.45;;
20421;SDS011;10370;53.102;18.034;2024-03-29T18:09:37;21.38;;;6.78;;
20421;SDS011;10370;53.102;18.034;2024-03-29T18:14:58;15.60;;;6.90;;
20421;SDS011;10370;53.102;18.034;2024-03-29T18:20:20;35.83;;;6.50;;
20421;SDS011;10370;53.102;18.034;2024-03-29T18:25:42;20.10;;;5.25;;
20421;SDS011;10370;53.102;18.034;2024-03-29T18:31:03;10.93;;;4.32;;
20421;SDS011;10370;53.102;18.034;2024-03-29T18:36:30;8.65;;;3.97;;
20421;SDS011;10370;53.102;18.034;2024-03-29T18:41:51;10.27;;;3.60;;
20421;SDS011;10370;53.102;18.034;2024-03-29T18:47:14;9.18;;;3.95;;
20421;SDS011;10370;53.102;18.034;2024-03-29T18:52:36;13.85;;;4.45;;
20421;SDS011;10370;53.102;18.034;2024-03-29T18:57:58;11.43;;;3.78;;
20421;SDS011;10370;53.102;18.034;2024-03-29T19:08:42;18.85;;;3.90;;
20421;SDS011;10370;53.102;18.034;2024-03-29T19:14:04;16.75;;;5.68;;
20421;SDS011;10370;53.102;18.034;2024-03-29T19:19:25;13.52;;;5.55;;
20421;SDS011;10370;53.102;18.034;2024-03-29T19:24:47;24.50;;;8.73;;
20421;SDS011;10370;53.102;18.034;2024-03-29T19:30:13;22.63;;;6.22;;
20421;SDS011;10370;53.102;18.034;2024-03-29T19:35:35;22.92;;;6.93;;
20421;SDS011;10370;53.102;18.034;2024-03-29T19:40:56;16.63;;;6.75;;
20421;SDS011;10370;53.102;18.034;2024-03-29T19:46:22;21.95;;;8.43;;
20421;SDS011;10370;53.102;18.034;2024-03-29T19:51:44;17.23;;;6.90;;
20421;SDS011;10370;53.102;18.034;2024-03-29T19:57:06;18.40;;;6.95;;
20421;SDS011;10370;53.102;18.034;2024-03-29T20:02:28;12.75;;;5.65;;
20421;SDS011;10370;53.102;18.034;2024-03-29T20:07:50;21.17;;;6.07;;
20421;SDS011;10370;53.102;18.034;2024-03-29T20:13:12;10.90;;;5.38;;
20421;SDS011;10370;53.102;18.034;2024-03-29T20:18:37;11.63;;;5.50;;
20421;SDS011;10370;53.102;18.034;2024-03-29T20:23:58;16.38;;;5.32;;
20421;SDS011;10370;53.102;18.034;2024-03-29T20:29:23;12.32;;;5.32;;
20421;SDS011;10370;53.102;18.034;2024-03-29T20:34:45;13.90;;;4.93;;
20421;SDS011;10370;53.102;18.034;2024-03-29T20:40:08;13.75;;;5.22;;
20421;SDS011;10370;53.102;18.034;2024-03-29T20:45:30;12.25;;;4.90;;
20421;SDS011;10370;53.102;18.034;2024-03-29T20:50:59;13.40;;;5.90;;
20421;SDS011;10370;53.102;18.034;2024-03-29T20:56:20;18.42;;;5.35;;
20421;SDS011;10370;53.102;18.034;2024-03-29T21:01:42;12.77;;;5.32;;
20421;SDS011;10370;53.102;18.034;2024-03-29T21:07:22;17.52;;;5.53;;
20421;SDS011;10370;53.102;18.034;2024-03-29T21:12:44;13.57;;;5.55;;
20421;SDS011;10370;53.102;18.034;2024-03-29T21:18:07;12.98;;;5.38;;
20421;SDS011;10370;53.102;18.034;2024-03-29T21:23:29;10.63;;;5.57;;
20421;SDS011;10370;53.102;18.034;2024-03-29T21:28:51;10.93;;;4.50;;
20421;SDS011;10370;53.102;18.034;2024-03-29T21:34:13;12.52;;;5.50;;
20421;SDS011;10370;53.102;18.034;2024-03-29T21:39:35;13.80;;;5.22;;
20421;SDS011;10370;53.102;18.034;2024-03-29T21:44:56;12.82;;;5.22;;
20421;SDS011;10370;53.102;18.034;2024-03-29T21:50:18;15.55;;;6.57;;
20421;SDS011;10370;53.102;18.034;2024-03-29T21:55:40;10.73;;;4.50;;
20421;SDS011;10370;53.102;18.034;2024-03-29T22:01:03;9.48;;;4.57;;
20421;SDS011;10370;53.102;18.034;2024-03-29T22:06:25;9.68;;;4.60;;
20421;SDS011;10370;53.102;18.034;2024-03-29T22:11:47;12.13;;;4.80;;
20421;SDS011;10370;53.102;18.034;2024-03-29T22:17:09;11.23;;;5.47;;
20421;SDS011;10370;53.102;18.034;2024-03-29T22:22:30;10.38;;;5.00;;
20421;SDS011;10370;53.102;18.034;2024-03-29T22:27:52;17.00;;;9.18;;
20421;SDS011;10370;53.102;18.034;2024-03-29T22:33:13;14.38;;;7.90;;
20421;SDS011;10370;53.102;18.034;2024-03-29T22:38:35;16.65;;;7.45;;
20421;SDS011;10370;53.102;18.034;2024-03-29T22:43:57;22.42;;;10.90;;
20421;SDS011;10370;53.102;18.034;2024-03-29T22:49:19;16.75;;;8.38;;
20421;SDS011;10370;53.102;18.034;2024-03-29T22:54:41;10.82;;;5.15;;
20421;SDS011;10370;53.102;18.034;2024-03-29T23:00:03;10.77;;;5.18;;
20421;SDS011;10370;53.102;18.034;2024-03-29T23:05:31;13.35;;;5.57;;
20421;SDS011;10370;53.102;18.034;2024-03-29T23:10:53;16.27;;;7.20;;
20421;SDS011;10370;53.102;18.034;2024-03-29T23:16:15;15.85;;;6.57;;
20421;SDS011;10370;53.102;18.034;2024-03-29T23:21:38;17.35;;;8.23;;
20421;SDS011;10370;53.102;18.034;2024-03-29T23:26:59;16.27;;;7.30;;
20421;SDS011;10370;53.102;18.034;2024-03-29T23:32:20;12.20;;;5.60;;
20421;SDS011;10370;53.102;18.034;2024-03-29T23:37:42;15.27;;;5.65;;
20421;SDS011;10370;53.102;18.034;2024-03-29T23:43:04;14.57;;;6.93;;
20421;SDS011;10370;53.102;18.034;2024-03-29T23:48:29;15.93;;;7.65;;
20421;SDS011;10370;53.102;18.034;2024-03-29T23:53:51;19.00;;;6.70;;
20421;SDS011;10370;53.102;18.034;2024-03-29T23:59:13;17.70;;;7.85;;
